Latest Weather Observations for Gatton

IDQ60801

Issued at 6:02 pm EST Thursday 2 July 2015 (issued every 30 minutes, with the page automatically refreshed every 10 minutes)

About weather observations | Map of weather stations | Latest weather observations for QLD | Other Formats
Station Details ID: 040082 Name: UNIVERSITY OF QUEENSLAND GATTON Lat: -27.54 Lon: 152.34 Height: 89.0 m
Data from the previous 72 hours. | See also: Recent months at Gatton
Date/Time
EST
Temp
°C
App
Temp
°C
Dew
Point
Rel
Hum
%
Delta-T
°C
Wind Press
QNH
hPa
Press
MSL
hPa
Rain
since 9 am
mm
Dir
 
Spd
km/h
Gust
km/h
Spd
kts
Gust
kts
02/06:00pm 12.5 7.4 2.9 52 4.2 W 19 28 10 15 - - 0.0
02/05:30pm 13.4 7.7 2.6 48 4.8 W 22 33 12 18 - - 0.0
02/05:00pm 14.6 7.7 2.5 44 5.4 W 28 39 15 21 - - 0.0
02/04:30pm 16.1 9.5 1.8 38 6.4 W 26 35 14 19 - - 0.0
02/04:00pm 16.3 10.9 2.7 40 6.2 W 20 37 11 20 - - 0.0
02/03:30pm 16.6 10.0 1.9 37 6.6 WSW 26 37 14 20 - - 0.0
02/03:00pm 17.2 10.2 2.0 36 6.9 W 28 41 15 22 - - 0.0
02/02:30pm 18.3 11.8 2.6 35 7.2 W 26 39 14 21 - - 0.0
02/02:00pm 17.2 10.4 0.8 33 7.2 W 26 37 14 20 - - 0.0
02/01:30pm 17.1 10.6 0.3 32 7.3 W 24 35 13 19 - - 0.0
02/01:00pm 17.7 9.7 0.4 31 7.6 WSW 32 46 17 25 - - 0.0
02/12:30pm 17.9 11.8 3.0 37 6.9 W 24 35 13 19 - - 0.0
02/12:00pm 17.9 12.5 6.4 47 5.7 W 24 37 13 20 - - 0.0
02/11:30am 17.4 12.5 6.9 50 5.2 W 22 33 12 18 - - 0.0
02/11:00am 16.1 11.1 6.3 52 4.8 W 22 33 12 18 - - 0.0
02/10:30am 16.1 10.7 6.5 53 4.7 W 24 35 13 19 - - 0.0
02/10:00am 15.6 10.3 6.9 56 4.3 WSW 24 35 13 19 - - 0.0
02/09:30am 15.1 9.4 6.7 57 4.1 WSW 26 39 14 21 - - 0.0
02/09:00am 14.2 9.3 8.6 69 2.8 W 24 33 13 18 - - 0.0
02/08:30am 13.5 9.1 9.0 74 2.3 W 22 35 12 19 - - 0.0
02/08:00am 12.5 7.6 8.6 77 1.9 W 24 32 13 17 - - 0.0
02/07:30am 11.6 7.7 8.5 81 1.5 W 19 24 10 13 - - 0.0
02/07:00am 11.2 6.6 8.1 81 1.5 W 22 28 12 15 - - 0.0
02/06:30am 11.0 7.7 8.0 82 1.5 W 15 22 8 12 - - 0.0
02/06:00am 11.4 7.7 8.1 80 1.6 W 17 22 9 12 - - 0.0
02/05:30am 12.2 8.6 8.5 78 1.8 W 17 24 9 13 - - 0.0
02/05:00am 12.2 8.6 8.5 78 1.8 W 17 24 9 13 - - 0.0
02/04:30am 12.2 8.7 8.7 79 1.7 W 17 30 9 16 - - 0.0
02/04:00am 12.3 8.8 8.8 79 1.8 W 17 24 9 13 - - 0.0
02/03:30am 12.4 8.9 8.7 78 1.9 W 17 26 9 14 - - 0.0
02/03:00am 12.1 8.6 8.8 80 1.7 W 17 22 9 12 - - 0.0
02/02:30am 11.9 8.9 9.1 83 1.4 W 15 20 8 11 - - 0.0
02/02:00am 12.1 8.4 9.3 83 1.4 W 19 24 10 13 - - 0.0
02/01:30am 12.3 9.3 9.3 82 1.5 W 15 20 8 11 - - 0.0
02/01:00am 12.4 9.4 9.4 82 1.5 W 15 20 8 11 - - 0.0
02/12:30am 12.7 9.4 9.5 81 1.6 W 17 22 9 12 - - 0.0
02/12:00am 13.2 10.4 10.0 81 1.7 W 15 22 8 12 - - 0.0
 
Date/Time
EST
Temp
°C
App
Temp
°C
Dew
Point
Rel
Hum
%
Delta-T
°C
Wind Press
QNH
hPa
Press
MSL
hPa
Rain
since 9 am
mm
Dir
 
Spd
km/h
Gust
km/h
Spd
kts
Gust
kts
01/11:30pm 13.1 10.3 9.9 81 1.7 W 15 20 8 11 - - 0.0
01/11:00pm 13.4 10.6 10.0 80 1.8 W 15 19 8 10 - - 0.0
01/10:30pm 13.5 10.0 10.1 80 1.8 W 19 28 10 15 - - 0.0
01/10:00pm 13.0 11.2 9.6 80 1.7 W 9 13 5 7 - - 0.0
01/09:30pm 13.3 10.7 9.5 78 1.9 WSW 13 20 7 11 - - 0.0
01/09:00pm 13.9 10.1 9.7 76 2.2 WSW 20 28 11 15 - - 0.0
01/08:30pm 14.1 10.3 9.9 76 2.2 WSW 20 30 11 16 - - 0.0
01/08:00pm 14.2 11.0 9.8 75 2.3 WSW 17 24 9 13 - - 0.0
01/07:30pm 14.9 11.7 9.9 72 2.6 W 17 24 9 13 - - 0.0
01/07:00pm 15.6 11.1 9.9 69 3.0 W 24 33 13 18 - - 0.0
01/06:30pm 15.9 11.8 10.2 69 3.0 W 22 32 12 17 - - 0.0
01/06:00pm 16.1 12.6 10.2 68 3.1 W 19 28 10 15 - - 0.0
01/05:30pm 17.0 14.2 9.9 63 3.8 WSW 15 20 8 11 - - 0.0
01/05:00pm 18.3 14.7 10.4 60 4.2 W 20 30 11 16 - - 0.0
01/04:30pm 20.0 15.6 10.4 54 5.2 W 24 35 13 19 - - 0.0
01/04:00pm 21.3 16.9 10.5 50 5.9 W 24 33 13 18 - - 0.0
01/03:30pm 22.5 17.6 10.0 45 6.8 W 26 35 14 19 - - 0.0
01/03:00pm 23.4 19.6 9.8 42 7.4 W 20 30 11 16 - - 0.0
01/02:30pm 23.5 19.7 9.9 42 7.5 W 20 26 11 14 - - 0.0
01/02:00pm 23.3 20.2 10.4 44 7.1 W 17 22 9 12 - - 0.0
01/01:30pm 22.2 19.7 9.7 45 6.8 SW 13 17 7 9 - - 0.0
01/01:00pm 22.8 20.4 11.5 49 6.3 WSW 15 24 8 13 - - 0.0
01/12:30pm 21.7 19.8 11.7 53 5.6 WSW 13 20 7 11 - - 0.0
01/12:00pm 21.7 20.0 12.5 56 5.2 WNW 13 17 7 9 - - 0.0
01/11:30am 21.4 20.0 13.3 60 4.7 W 13 20 7 11 - - 0.0
01/11:00am 20.3 18.4 13.0 63 4.2 W 15 20 8 11 - - 0.0
01/10:30am 19.0 17.9 13.0 68 3.4 W 11 15 6 8 - - 0.0
01/10:00am 17.3 16.6 13.2 77 2.3 W 9 11 5 6 - - 0.0
01/09:30am 15.5 14.8 13.2 86 1.3 WSW 9 11 5 6 - - 0.0
01/09:00am 13.8 13.2 12.2 90 0.9 W 7 9 4 5 - - 0.2
01/08:30am 12.8 12.1 11.9 94 0.5 W 7 9 4 5 - - 0.2
01/08:00am 11.7 10.7 11.1 96 0.3 W 7 7 4 4 - - 0.2
01/07:30am 10.9 10.7 10.4 97 0.3 SW 2 6 1 3 - - 0.2
01/07:00am 9.8 8.5 9.2 96 0.3 SW 6 7 3 4 - - 0.2
01/06:30am 9.8 8.4 8.9 94 0.4 ESE 6 7 3 4 - - 0.2
01/06:00am 9.9 9.6 8.7 92 0.6 CALM 0 0 0 0 - - 0.2
01/05:30am 11.0 11.0 9.9 93 0.6 CALM 0 0 0 0 - - 0.2
01/05:00am 11.4 11.6 10.5 94 0.5 CALM 0 7 0 4 - - 0.2
01/04:30am 11.4 10.4 10.3 93 0.6 WSW 6 9 3 5 - - 0.0
01/04:00am 11.2 9.9 10.1 93 0.6 WSW 7 11 4 6 - - 0.0
01/03:30am 11.4 10.2 10.3 93 0.6 W 7 11 4 6 - - 0.0
01/03:00am 11.4 9.8 10.3 93 0.6 WSW 9 11 5 6 - - 0.0
01/02:30am 11.3 9.4 10.4 94 0.5 WSW 11 13 6 7 - - 0.0
01/02:00am 11.2 9.6 10.3 94 0.5 W 9 13 5 7 - - 0.0
01/01:30am 11.2 9.6 10.3 94 0.5 W 9 13 5 7 - - 0.0
01/01:00am 11.2 9.2 10.3 94 0.5 W 11 15 6 8 - - 0.0
01/12:30am 10.7 9.0 9.9 95 0.4 WSW 9 11 5 6 - - 0.0
01/12:00am 10.3 8.9 9.5 95 0.4 SW 7 9 4 5 - - 0.0
 
Date/Time
EST
Temp
°C
App
Temp
°C
Dew
Point
Rel
Hum
%
Delta-T
°C
Wind Press
QNH
hPa
Press
MSL
hPa
Rain
since 9 am
mm
Dir
 
Spd
km/h
Gust
km/h
Spd
kts
Gust
kts
30/11:30pm 10.9 9.6 10.0 94 0.5 WSW 7 9 4 5 - - 0.0
30/11:00pm 11.3 9.8 10.4 94 0.5 WSW 9 11 5 6 - - 0.0
30/10:30pm 11.3 10.1 10.2 93 0.6 W 7 11 4 6 - - 0.0
30/10:00pm 11.3 9.6 10.0 92 0.7 W 9 11 5 6 - - 0.0
30/09:30pm 12.1 11.0 10.7 91 0.7 WSW 7 9 4 5 - - 0.0
30/09:00pm 12.8 11.6 11.7 93 0.6 W 9 11 5 6 - - 0.0
30/08:30pm 12.8 12.1 11.4 91 0.7 WSW 6 9 3 5 - - 0.0
30/08:00pm 13.2 12.5 12.1 93 0.6 WSW 7 9 4 5 - - 0.0
30/07:30pm 13.2 12.6 11.6 90 0.9 SW 6 7 3 4 - - 0.0
30/07:00pm 13.8 13.2 12.2 90 0.9 WSW 7 9 4 5 - - 0.0
30/06:30pm 14.1 13.9 11.8 86 1.2 SW 4 6 2 3 - - 0.0
30/06:00pm 14.6 13.9 12.1 85 1.4 WSW 7 7 4 4 - - 0.0
30/05:30pm 16.1 17.0 13.0 82 1.7 CALM 0 0 0 0 - - 0.0
30/05:00pm 17.7 17.8 14.0 79 2.1 N 6 6 3 3 - - 0.0
30/04:30pm 19.1 19.4 13.5 70 3.2 N 4 6 2 3 - - 0.0
30/04:00pm 20.2 20.0 12.9 63 4.2 NNE 6 9 3 5 - - 0.0
30/03:30pm 20.8 20.3 12.8 60 4.6 NNE 7 11 4 6 - - 0.0
30/03:00pm 20.8 20.2 12.2 58 4.8 ENE 7 11 4 6 - - 0.0
30/02:30pm 21.4 20.0 12.3 56 5.1 NNE 11 15 6 8 - - 0.0
30/02:00pm 21.5 19.9 12.9 58 4.9 NE 13 15 7 8 - - 0.0
30/01:30pm 20.3 19.5 12.8 62 4.3 ESE 9 13 5 7 - - 0.0
30/01:00pm 20.7 20.1 13.4 63 4.2 ESE 9 13 5 7 - - 0.0
30/12:30pm 21.2 20.9 13.4 61 4.5 ENE 7 15 4 8 - - 0.0
30/12:00pm 20.6 20.2 13.1 62 4.3 ESE 7 11 4 6 - - 0.0
30/11:30am 20.2 20.1 13.9 67 3.6 NE 7 11 4 6 - - 0.0
30/11:00am 18.1 18.4 14.4 79 2.1 SSW 6 7 3 4 - - 0.0
30/10:30am 16.8 17.0 14.8 88 1.2 W 7 9 4 5 - - 0.0
30/10:00am 15.3 15.9 14.2 93 0.6 S 4 9 2 5 - - 0.0
30/09:30am 14.7 14.3 14.1 96 0.3 W 9 13 5 7 - - 0.0
30/09:00am 14.4 13.6 14.1 98 0.2 WSW 11 15 6 8 - - 2.2
30/08:30am 13.5 12.4 13.2 98 0.2 WSW 11 15 6 8 - - 2.2
30/08:00am 13.3 12.5 13.0 98 0.2 WSW 9 11 5 6 - - 2.2
30/07:30am 13.2 12.4 12.9 98 0.2 WSW 9 13 5 7 - - 2.2
30/07:00am 13.3 12.5 13.0 98 0.2 WSW 9 15 5 8 - - 2.2
30/06:30am 12.5 12.0 12.2 98 0.2 W 6 11 3 6 - - 2.2
30/06:00am 11.2 10.7 10.6 96 0.3 SE 4 9 2 5 - - 2.2
30/05:30am 11.5 11.3 10.6 94 0.5 SE 2 6 1 3 - - 2.2
30/05:00am 12.6 12.8 11.8 95 0.4 S 2 7 1 4 - - 2.2
30/04:30am 13.4 13.1 12.6 95 0.4 W 6 7 3 4 - - 2.2
30/04:00am 14.0 13.9 13.2 95 0.4 W 6 9 3 5 - - 2.2
30/03:30am 14.1 14.0 13.3 95 0.4 WSW 6 7 3 4 - - 2.2
30/03:00am 14.2 14.5 13.4 95 0.4 WNW 4 7 2 4 - - 2.2
30/02:30am 14.2 14.1 13.4 95 0.4 N 6 7 3 4 - - 2.2
30/02:00am 14.3 15.4 13.5 95 0.4 CALM 0 6 0 3 - - 2.2
30/01:30am 14.5 14.5 13.7 95 0.4 NW 6 7 3 4 - - 2.2
30/01:00am 14.6 14.7 13.8 95 0.4 NNW 6 7 3 4 - - 2.2
30/12:30am 14.7 14.6 13.9 95 0.5 N 7 7 4 4 - - 2.2
30/12:00am 14.8 14.7 14.0 95 0.5 NNE 7 7 4 4 - - 2.2
 
Date/Time
EST
Temp
°C
App
Temp
°C
Dew
Point
Rel
Hum
%
Delta-T
°C
Wind Press
QNH
hPa
Press
MSL
hPa
Rain
since 9 am
mm
Dir
 
Spd
km/h
Gust
km/h
Spd
kts
Gust
kts
29/11:30pm 14.9 14.4 13.9 94 0.6 NE 9 11 5 6 - - 2.0
29/11:00pm 15.1 15.3 14.3 95 0.5 E 6 7 3 4 - - 2.0
29/10:30pm 15.1 16.5 14.3 95 0.5 CALM 0 0 0 0 - - 2.0
29/10:00pm 15.1 16.5 14.3 95 0.5 CALM 0 0 0 0 - - 2.0
29/09:30pm 15.1 16.5 14.3 95 0.5 CALM 0 0 0 0 - - 2.0
29/09:00pm 15.0 16.3 14.2 95 0.5 CALM 0 0 0 0 - - 2.0
29/08:30pm 15.0 15.0 14.2 95 0.5 WSW 7 9 4 5 - - 2.0
29/08:00pm 15.1 15.1 14.3 95 0.5 WSW 7 9 4 5 - - 2.0
29/07:30pm 15.2 16.6 14.4 95 0.5 CALM 0 0 0 0 - - 2.0
29/07:00pm 15.2 15.3 14.4 95 0.5 WNW 7 9 4 5 - - 2.0
29/06:30pm 15.4 15.7 14.4 94 0.6 WNW 6 7 3 4 - - 2.0

Other Formats:

Comma delimited format used in spreadsheet applications
http://www.bom.gov.au/fwo/IDQ60801/IDQ60801.94562.axf

JavaScript Object Notation format (JSON) in row-major order
http://www.bom.gov.au/fwo/IDQ60801/IDQ60801.94562.json